createdAt,value
2019-02-17T05:00:40.113Z,0.00
2019-02-17T05:01:36.464Z,0.00
2019-02-17T05:03:09.237Z,0.00
2019-02-17T05:04:09.442Z,0.00
2019-02-17T05:05:43.241Z,0.00
2019-02-17T05:06:43.514Z,0.00
2019-02-17T05:08:17.345Z,0.00
2019-02-17T05:09:17.582Z,0.00
2019-02-17T05:10:51.386Z,0.00
2019-02-17T05:11:51.636Z,0.00
2019-02-17T05:13:26.397Z,0.00
2019-02-17T05:14:26.591Z,0.00
2019-02-17T05:16:00.349Z,0.00
2019-02-17T05:17:00.548Z,0.00
2019-02-17T05:18:34.351Z,0.00
2019-02-17T05:19:34.569Z,0.00
2019-02-17T05:21:08.477Z,0.00
2019-02-17T05:22:08.710Z,0.00
2019-02-17T05:23:42.548Z,0.00
2019-02-17T05:24:42.730Z,0.00
2019-02-17T05:26:16.624Z,0.00
2019-02-17T05:27:16.835Z,0.00
2019-02-17T05:28:50.122Z,0.00
2019-02-17T05:29:50.334Z,0.00
2019-02-17T05:31:24.139Z,0.00
2019-02-17T05:32:24.336Z,0.00
2019-02-17T05:33:58.664Z,0.00
2019-02-17T05:34:59.120Z,0.00
2019-02-17T05:36:32.654Z,0.00
2019-02-17T05:37:32.708Z,0.00
2019-02-17T05:39:06.144Z,0.00
2019-02-17T05:40:06.369Z,0.00
2019-02-17T05:41:39.765Z,0.00
2019-02-17T05:42:39.977Z,0.00
2019-02-17T05:44:13.864Z,0.00
2019-02-17T05:45:14.069Z,0.00
2019-02-17T05:46:47.419Z,0.00
2019-02-17T05:47:47.701Z,0.00
2019-02-17T05:49:21.379Z,0.00
2019-02-17T05:50:21.583Z,0.00
2019-02-17T05:51:56.475Z,0.00
2019-02-17T05:52:56.704Z,0.00
2019-02-17T05:54:30.519Z,0.00
2019-02-17T05:55:30.713Z,4.00
2019-02-17T05:57:04.064Z,0.00
2019-02-17T05:58:04.292Z,0.00
2019-02-17T05:59:38.110Z,4.00
2019-02-17T06:00:38.333Z,4.00
2019-02-17T06:02:12.201Z,4.00
2019-02-17T06:03:12.396Z,4.00
2019-02-17T06:04:45.697Z,4.00
2019-02-17T06:05:45.963Z,8.00
2019-02-17T06:07:19.133Z,12.00
2019-02-17T06:08:19.332Z,12.00
2019-02-17T06:09:52.605Z,16.00
2019-02-17T06:10:52.834Z,20.00
2019-02-17T06:12:27.135Z,24.00
2019-02-17T06:13:27.382Z,32.00
2019-02-17T06:15:00.532Z,40.00
2019-02-17T06:16:00.736Z,48.00
2019-02-17T06:17:34.030Z,64.00
2019-02-17T06:18:34.224Z,72.00
2019-02-17T06:20:07.490Z,92.00
2019-02-17T06:21:07.727Z,108.00
2019-02-17T06:22:40.998Z,128.00
2019-02-17T06:23:41.216Z,148.00
2019-02-17T06:25:15.504Z,176.00
2019-02-17T06:26:15.708Z,192.00
2019-02-17T06:27:48.999Z,224.00
2019-02-17T06:28:49.351Z,248.00
2019-02-17T06:30:23.167Z,280.00
2019-02-17T06:31:24.501Z,304.00
2019-02-17T06:32:57.204Z,344.00
2019-02-17T06:33:57.349Z,372.00
2019-02-17T06:35:31.207Z,416.00
2019-02-17T06:36:31.329Z,448.00
2019-02-17T06:38:05.126Z,508.00
2019-02-17T06:39:05.317Z,548.00
2019-02-17T06:40:39.099Z,608.00
2019-02-17T06:41:39.302Z,648.00
2019-02-17T06:43:13.077Z,716.00
2019-02-17T06:44:13.304Z,760.00
2019-02-17T06:45:47.056Z,836.00
2019-02-17T06:46:47.278Z,880.00
2019-02-17T06:48:20.556Z,964.00
2019-02-17T06:49:20.778Z,1020.00
2019-02-17T06:50:55.186Z,1096.00
2019-02-17T06:51:55.266Z,1148.00
2019-02-17T06:53:28.588Z,1220.00
2019-02-17T06:54:28.778Z,1272.00
2019-02-17T06:56:02.054Z,1336.00
2019-02-17T06:57:02.131Z,1380.00
2019-02-17T06:58:41.944Z,1436.00
2019-02-17T06:59:39.668Z,1492.00
2019-02-17T07:01:13.003Z,1532.00
2019-02-17T07:02:13.074Z,1564.00
2019-02-17T07:03:48.211Z,1628.00
2019-02-17T07:04:48.176Z,1708.00
2019-02-17T07:06:21.416Z,1824.00
2019-02-17T07:07:22.189Z,1880.00
2019-02-17T07:08:55.703Z,1916.00
2019-02-17T07:09:55.800Z,1940.00
2019-02-17T07:11:29.564Z,1980.00
2019-02-17T07:12:30.227Z,1996.00
2019-02-17T07:14:04.863Z,2056.00
2019-02-17T07:15:04.967Z,2116.00
2019-02-17T07:16:40.171Z,2176.00
2019-02-17T07:17:40.497Z,2188.00
2019-02-17T07:19:16.281Z,2256.00
2019-02-17T07:20:16.539Z,2340.00
2019-02-17T07:21:52.312Z,2492.00
2019-02-17T07:22:52.639Z,2584.00
2019-02-17T07:24:28.340Z,2712.00
2019-02-17T07:25:30.421Z,2780.00
2019-02-17T07:27:03.348Z,2856.00
2019-02-17T07:28:03.553Z,2896.00
2019-02-17T07:29:39.069Z,2948.00
2019-02-17T07:30:38.431Z,3012.00
2019-02-17T07:32:13.254Z,3428.00
2019-02-17T07:33:13.631Z,3720.00
2019-02-17T07:34:48.164Z,4036.00
2019-02-17T07:35:48.275Z,4324.00
2019-02-17T07:37:32.737Z,4492.00
2019-02-17T07:38:24.284Z,4536.00
2019-02-17T07:39:57.633Z,4836.00
2019-02-17T07:40:57.823Z,4916.00
2019-02-17T07:42:31.149Z,5116.00
2019-02-17T07:43:31.313Z,5320.00
2019-02-17T07:45:05.530Z,5720.00
2019-02-17T07:46:05.745Z,6276.00
2019-02-17T07:47:39.153Z,6720.00
2019-02-17T07:48:39.265Z,6804.00
2019-02-17T07:50:13.299Z,7020.00
2019-02-17T07:51:13.323Z,6980.00
2019-02-17T07:52:47.158Z,7160.00
2019-02-17T07:53:48.339Z,7572.00
2019-02-17T07:55:22.611Z,7584.00
2019-02-17T07:56:22.750Z,7720.00
2019-02-17T07:57:56.932Z,8184.00
2019-02-17T07:58:59.441Z,8400.00
2019-02-17T08:00:31.309Z,8664.00
2019-02-17T08:01:44.462Z,8792.00
2019-02-17T08:03:09.457Z,8624.00
2019-02-17T08:04:10.369Z,8684.00
2019-02-17T08:05:43.201Z,8652.00
2019-02-17T08:06:43.953Z,8824.00
2019-02-17T08:08:18.111Z,8884.00
2019-02-17T08:09:18.329Z,8796.00
2019-02-17T08:10:52.122Z,8788.00
2019-02-17T08:11:52.229Z,8596.00
2019-02-17T08:13:25.446Z,8352.00
2019-02-17T08:14:25.525Z,8124.00
2019-02-17T08:15:58.953Z,7556.00
2019-02-17T08:16:59.132Z,7280.00
2019-02-17T08:18:32.430Z,7244.00
2019-02-17T08:19:32.680Z,7288.00
2019-02-17T08:21:05.849Z,7428.00
2019-02-17T08:22:07.105Z,7424.00
2019-02-17T08:23:39.848Z,7504.00
2019-02-17T08:24:39.959Z,7488.00
2019-02-17T08:26:13.725Z,7308.00
2019-02-17T08:27:13.827Z,7144.00
2019-02-17T08:28:47.647Z,6816.00
2019-02-17T08:29:47.383Z,6620.00
2019-02-17T08:31:20.599Z,6476.00
2019-02-17T08:32:20.780Z,6360.00
2019-02-17T08:33:55.266Z,6332.00
2019-02-17T08:34:55.423Z,6388.00
2019-02-17T10:10:20.550Z,17920.00
2019-02-17T10:11:20.231Z,18112.00
2019-02-17T10:12:53.456Z,18432.00
2019-02-17T10:13:53.741Z,18688.00
2019-02-17T10:15:28.165Z,18848.00
2019-02-17T10:16:28.614Z,18784.00
2019-02-17T10:18:00.859Z,19072.00
2019-02-17T10:19:01.072Z,19264.00
2019-02-17T10:20:34.387Z,19392.00
2019-02-17T10:21:35.396Z,19616.00
2019-02-17T10:23:08.883Z,19776.00
2019-02-17T10:24:09.050Z,20000.00
2019-02-17T10:25:42.047Z,19520.00
2019-02-17T10:26:42.200Z,19744.00
2019-02-17T10:28:16.435Z,19552.00
2019-02-17T10:29:16.661Z,19392.00
2019-02-17T10:30:49.857Z,19808.00
2019-02-17T10:31:49.971Z,20384.00
2019-02-17T10:33:23.865Z,19968.00
2019-02-17T10:34:23.972Z,19744.00
2019-02-17T10:35:58.021Z,19712.00
2019-02-17T10:36:57.544Z,19136.00
2019-02-17T10:38:32.396Z,18464.00
2019-02-17T10:39:32.377Z,18400.00
2019-02-17T10:41:06.684Z,18048.00
2019-02-17T10:42:06.789Z,17696.00
2019-02-17T10:43:41.109Z,17792.00
2019-02-17T10:44:41.244Z,17568.00
2019-02-17T10:46:15.469Z,16736.00
2019-02-17T10:47:15.587Z,16352.00
2019-02-17T10:48:48.929Z,16768.00
2019-02-17T10:49:49.146Z,17344.00
2019-02-17T10:51:22.443Z,17664.00
2019-02-17T10:52:22.931Z,17184.00
2019-02-17T10:53:56.251Z,17408.00
2019-02-17T10:54:56.387Z,17120.00
2019-02-17T10:56:29.730Z,16000.00
2019-02-17T10:57:29.614Z,16256.00
2019-02-17T10:59:03.963Z,15596.00
2019-02-17T11:30:31.384Z,21984.00
2019-02-17T11:31:32.615Z,21472.00
2019-02-17T11:33:05.023Z,20768.00
2019-02-17T11:34:06.425Z,20320.00
2019-02-17T11:35:39.982Z,19904.00
2019-02-17T11:36:40.226Z,19232.00
2019-02-17T11:38:16.929Z,20128.00
2019-02-17T11:39:17.033Z,19744.00
2019-02-17T11:40:53.781Z,19488.00
2019-02-17T11:41:53.902Z,19872.00
2019-02-17T11:43:27.668Z,18848.00
2019-02-17T11:44:27.768Z,18464.00
2019-02-17T11:46:02.538Z,19904.00
2019-02-17T11:47:02.810Z,19776.00
2019-02-17T11:48:37.694Z,19392.00
2019-02-17T11:49:38.277Z,19392.00
2019-02-17T11:51:12.882Z,19104.00
2019-02-17T11:52:13.195Z,20576.00
2019-02-17T13:06:18.517Z,90528.00
2019-02-17T13:07:19.814Z,97440.00
2019-02-17T13:08:52.045Z,97696.00
2019-02-17T13:09:52.286Z,97408.00
2019-02-17T13:11:25.581Z,96480.00
2019-02-17T13:12:25.862Z,97952.00
2019-02-17T13:14:00.725Z,27008.00
2019-02-17T13:15:00.959Z,7824.00
2019-02-17T13:16:34.269Z,23968.00
2019-02-17T13:17:34.467Z,7840.00
2019-02-17T13:19:09.747Z,20576.00
2019-02-17T13:20:09.972Z,20032.00
2019-02-17T13:21:47.325Z,18752.00
2019-02-17T13:22:47.539Z,18752.00
2019-02-17T13:24:20.891Z,18016.00
2019-02-17T13:25:21.012Z,17408.00
2019-02-17T13:26:54.785Z,16480.00
2019-02-17T13:27:54.993Z,15920.00
2019-02-17T13:29:28.987Z,17856.00
2019-02-17T13:30:29.104Z,18720.00
2019-02-17T13:32:03.744Z,19136.00
2019-02-17T13:33:03.865Z,18752.00
2019-02-17T13:34:38.676Z,16448.00
2019-02-17T13:35:38.741Z,16352.00
2019-02-17T13:37:12.540Z,15676.00
2019-02-17T13:38:12.771Z,14136.00
2019-02-17T13:39:48.535Z,13820.00
2019-02-17T13:40:48.631Z,13600.00
2019-02-17T13:42:22.433Z,12240.00
2019-02-17T13:43:22.659Z,12068.00
2019-02-17T13:44:57.477Z,11412.00
2019-02-17T13:45:57.683Z,12108.00
2019-02-17T13:47:31.979Z,11312.00
2019-02-17T13:48:31.875Z,11560.00
2019-02-17T13:50:06.375Z,10896.00
2019-02-17T13:51:06.608Z,11468.00
2019-02-17T13:52:39.842Z,10868.00
2019-02-17T13:53:39.953Z,10792.00
2019-02-17T13:55:13.736Z,10308.00
2019-02-17T13:56:13.970Z,10024.00
2019-02-17T13:57:47.222Z,9960.00
2019-02-17T13:58:47.431Z,9584.00
2019-02-17T14:00:21.707Z,9232.00
2019-02-17T14:01:21.973Z,8940.00
2019-02-17T14:02:55.844Z,8840.00
2019-02-17T14:03:55.934Z,8720.00
